createdAt,value
2022-09-24T00:01:25.552Z,4.22
2022-09-24T00:03:31.104Z,3.67
2022-09-24T00:05:40.184Z,3.70
2022-09-24T00:07:45.284Z,4.50
2022-09-24T00:09:49.727Z,4.35
2022-09-24T00:11:54.156Z,4.60
2022-09-24T00:14:00.552Z,5.30
2022-09-24T00:16:08.250Z,5.10
2022-09-24T00:18:14.798Z,4.68
2022-09-24T00:20:19.065Z,5.75
2022-09-24T00:22:23.515Z,5.97
2022-09-24T00:24:45.083Z,5.75
2022-09-24T00:26:52.528Z,5.47
2022-09-24T00:28:58.169Z,5.18
2022-09-24T00:31:08.946Z,6.68
2022-09-24T00:33:13.761Z,5.85
2022-09-24T00:35:20.272Z,5.47
2022-09-24T00:37:24.604Z,6.07
2022-09-24T00:39:29.029Z,5.28
2022-09-24T00:41:36.151Z,5.55
2022-09-24T00:43:40.669Z,5.57
2022-09-24T00:45:45.289Z,5.95
2022-09-24T00:47:55.181Z,5.90
2022-09-24T00:50:09.543Z,5.68
2022-09-24T00:52:14.127Z,6.60
2022-09-24T00:54:22.721Z,6.43
2022-09-24T00:56:28.051Z,6.10
2022-09-24T00:58:32.944Z,7.15
2022-09-24T01:00:39.442Z,6.70
2022-09-24T01:02:48.134Z,6.60
2022-09-24T01:04:56.533Z,6.68
2022-09-24T01:07:01.675Z,5.78
2022-09-24T01:09:06.554Z,6.20
2022-09-24T01:11:24.995Z,5.85
2022-09-24T01:14:12.484Z,5.72
2022-09-24T01:16:24.311Z,6.43
2022-09-24T01:18:42.651Z,6.40
2022-09-24T01:21:20.053Z,6.88
2022-09-24T01:23:53.864Z,5.15
2022-09-24T01:26:20.235Z,6.32
2022-09-24T01:28:37.244Z,6.25
2022-09-24T01:30:46.421Z,6.47
2022-09-24T01:32:54.785Z,5.00
2022-09-24T01:35:02.776Z,5.93
2022-09-24T01:37:08.978Z,5.45
2022-09-24T01:39:15.438Z,5.85
2022-09-24T01:41:20.870Z,5.88
2022-09-24T01:43:28.508Z,5.88
2022-09-24T01:45:34.552Z,5.80
2022-09-24T01:47:42.522Z,6.35
2022-09-24T01:49:47.538Z,5.65
2022-09-24T01:51:55.996Z,5.63
2022-09-24T01:54:05.376Z,6.53
2022-09-24T01:56:15.309Z,5.50
2022-09-24T01:58:26.687Z,6.20
2022-09-24T02:00:31.649Z,6.00
2022-09-24T02:02:42.815Z,5.47
2022-09-24T02:04:52.225Z,5.60
2022-09-24T02:06:59.316Z,5.63
2022-09-24T02:09:03.968Z,5.53
2022-09-24T02:11:14.193Z,5.57
2022-09-24T02:13:20.704Z,4.85
2022-09-24T02:15:32.624Z,4.97
2022-09-24T02:17:42.203Z,4.68
2022-09-24T02:19:48.721Z,4.27
2022-09-24T02:21:54.242Z,5.45
2022-09-24T02:24:04.274Z,5.57
2022-09-24T02:28:13.487Z,5.70
2022-09-24T02:30:18.085Z,6.57
2022-09-24T02:32:24.644Z,5.53
2022-09-24T02:34:33.811Z,5.13
2022-09-24T02:36:41.051Z,5.30
2022-09-24T02:38:47.526Z,6.82
2022-09-24T02:40:53.643Z,6.18
2022-09-24T02:42:58.030Z,5.95
2022-09-24T02:45:04.454Z,6.20
2022-09-24T02:47:08.912Z,6.80
2022-09-24T02:49:14.248Z,6.45
2022-09-24T02:51:20.235Z,5.50
2022-09-24T02:53:24.856Z,6.47
2022-09-24T02:55:29.087Z,6.22
2022-09-24T02:57:33.565Z,6.03
2022-09-24T02:59:37.975Z,6.53
2022-09-24T03:01:43.019Z,6.28
2022-09-24T03:03:48.305Z,6.00
2022-09-24T03:05:54.883Z,7.13
2022-09-24T03:08:00.651Z,6.53
2022-09-24T03:10:05.225Z,6.55
2022-09-24T03:12:09.742Z,6.40
2022-09-24T03:14:14.124Z,6.35
2022-09-24T03:16:20.065Z,6.25
2022-09-24T03:18:24.801Z,6.15
2022-09-24T03:20:29.118Z,5.55
2022-09-24T03:22:33.401Z,5.55
2022-09-24T03:24:39.067Z,6.65
2022-09-24T03:26:43.629Z,5.60
2022-09-24T03:28:48.346Z,5.60
2022-09-24T03:31:00.672Z,5.85
2022-09-24T03:33:05.315Z,5.78
2022-09-24T03:35:10.769Z,6.20
2022-09-24T03:37:15.021Z,6.13
2022-09-24T03:39:19.593Z,6.13
2022-09-24T03:41:27.047Z,5.85
2022-09-24T03:43:31.682Z,5.85
2022-09-24T03:45:36.006Z,6.32
2022-09-24T03:47:42.892Z,6.30
2022-09-24T03:49:47.257Z,5.70
2022-09-24T03:51:51.592Z,5.78
2022-09-24T03:53:55.948Z,4.97
2022-09-24T03:56:02.648Z,5.05
2022-09-24T03:58:08.399Z,5.20
2022-09-24T04:00:13.928Z,5.00
2022-09-24T04:02:18.167Z,4.82
2022-09-24T04:04:22.745Z,5.55
2022-09-24T04:06:27.430Z,5.85
2022-09-24T04:08:31.923Z,5.93
2022-09-24T04:10:36.264Z,5.90
2022-09-24T04:12:40.623Z,5.50
2022-09-24T04:14:46.355Z,6.07
2022-09-24T04:16:50.592Z,5.85
2022-09-24T04:18:55.642Z,6.03
2022-09-24T04:21:01.323Z,6.13
2022-09-24T04:23:06.549Z,5.90
2022-09-24T04:25:14.752Z,6.20
2022-09-24T04:27:19.246Z,5.97
2022-09-24T04:29:23.734Z,5.93
2022-09-24T04:31:30.488Z,5.32
2022-09-24T04:33:34.928Z,5.35
2022-09-24T04:35:39.385Z,5.15
2022-09-24T04:37:44.119Z,5.20
2022-09-24T04:39:48.351Z,5.25
2022-09-24T04:41:52.650Z,5.15
2022-09-24T04:44:00.437Z,5.13
2022-09-24T04:46:08.756Z,5.13
2022-09-24T04:48:15.080Z,4.85
2022-09-24T04:50:19.648Z,5.22
2022-09-24T04:52:26.163Z,5.47
2022-09-24T04:54:30.905Z,4.72
2022-09-24T04:56:35.616Z,4.80
2022-09-24T04:58:40.128Z,4.82
2022-09-24T05:00:44.487Z,5.00
2022-09-24T05:02:48.919Z,5.13
2022-09-24T05:04:54.675Z,5.25
2022-09-24T05:06:59.386Z,5.57
2022-09-24T05:09:04.870Z,5.20
2022-09-24T05:11:10.886Z,5.32
2022-09-24T05:13:15.294Z,5.07
2022-09-24T05:15:20.649Z,5.22
2022-09-24T05:17:24.995Z,4.88
2022-09-24T05:19:29.618Z,5.28
2022-09-24T05:21:36.081Z,5.70
2022-09-24T05:23:40.588Z,5.22
2022-09-24T05:25:58.573Z,5.25
2022-09-24T05:28:03.371Z,5.15
2022-09-24T05:30:08.580Z,5.13
2022-09-24T05:32:15.396Z,5.57
2022-09-24T05:34:19.799Z,5.57
2022-09-24T05:36:26.164Z,4.75
2022-09-24T05:38:33.161Z,5.32
2022-09-24T05:40:49.633Z,5.28
2022-09-24T05:43:00.918Z,5.32
2022-09-24T05:45:06.465Z,5.32
2022-09-24T05:47:11.080Z,5.15
2022-09-24T05:49:15.407Z,6.00
2022-09-24T05:51:19.920Z,5.40
2022-09-24T05:53:24.580Z,5.53
2022-09-24T05:55:32.588Z,5.47
2022-09-24T05:57:37.258Z,5.55
2022-09-24T05:59:41.532Z,5.68
2022-09-24T06:01:45.976Z,5.45
2022-09-24T06:03:50.390Z,5.78
2022-09-24T06:05:56.462Z,6.03
2022-09-24T06:08:00.827Z,5.38
2022-09-24T06:10:07.557Z,5.35
2022-09-24T06:12:14.273Z,5.30
2022-09-24T06:14:18.895Z,5.95
2022-09-24T06:16:23.774Z,6.35
2022-09-24T06:18:28.134Z,5.85
2022-09-24T06:20:33.470Z,6.53
2022-09-24T06:22:37.744Z,6.45
2022-09-24T06:24:42.512Z,6.55
2022-09-24T06:26:47.198Z,6.28
2022-09-24T06:28:53.256Z,5.80
2022-09-24T06:30:58.004Z,5.90
2022-09-24T06:33:06.483Z,5.65
2022-09-24T06:35:10.977Z,5.72
2022-09-24T06:37:15.260Z,5.68
2022-09-24T06:39:19.648Z,5.65
2022-09-24T06:41:24.345Z,4.82
2022-09-24T06:43:28.834Z,5.70
2022-09-24T06:45:36.629Z,5.93
2022-09-24T06:47:40.972Z,5.80
2022-09-24T06:49:45.400Z,6.20
2022-09-24T06:51:49.835Z,7.35
2022-09-24T06:53:54.563Z,6.55
2022-09-24T06:56:00.930Z,5.18
2022-09-24T06:58:08.268Z,6.07
2022-09-24T07:00:14.187Z,6.50
2022-09-24T15:33:12.867Z,3.30
2022-09-24T15:35:17.800Z,2.80
2022-09-24T15:37:24.820Z,3.20
2022-09-24T15:39:32.063Z,4.05
2022-09-24T15:41:36.428Z,3.53
2022-09-24T15:43:41.301Z,3.10
2022-09-24T15:45:46.393Z,3.33
2022-09-24T15:47:51.440Z,4.50
2022-09-24T15:49:57.217Z,4.90
2022-09-24T15:52:07.120Z,6.15
2022-09-24T15:56:15.395Z,7.63
2022-09-24T15:58:19.893Z,9.05
2022-09-24T16:00:26.793Z,13.88
2022-09-24T16:02:33.900Z,16.55
2022-09-24T16:04:38.317Z,18.08
2022-09-24T16:06:44.461Z,18.60
2022-09-24T16:08:48.792Z,23.40
2022-09-24T16:10:53.379Z,20.65
2022-09-24T16:12:57.782Z,26.90
2022-09-24T16:15:02.317Z,41.25
2022-09-24T16:17:08.319Z,44.83
2022-09-24T16:19:12.780Z,46.63
2022-09-24T16:21:17.454Z,46.33
2022-09-24T16:23:23.428Z,57.78
2022-09-24T16:25:28.288Z,65.38
2022-09-24T16:27:34.851Z,51.17
2022-09-24T16:29:39.849Z,35.70
2022-09-24T16:31:44.486Z,29.10
2022-09-24T16:33:48.851Z,22.30
2022-09-24T16:35:54.001Z,17.40
2022-09-24T16:37:58.830Z,12.88
2022-09-24T16:40:04.918Z,10.98
2022-09-24T16:42:09.411Z,8.80
2022-09-24T16:44:15.317Z,7.65
2022-09-24T16:46:20.999Z,9.48
2022-09-24T16:48:25.378Z,9.30
2022-09-24T16:50:30.284Z,9.32
2022-09-24T16:52:35.031Z,9.25
2022-09-24T16:54:39.370Z,9.77
2022-09-24T16:56:45.100Z,11.73
2022-09-24T16:58:49.429Z,30.73
2022-09-24T17:00:53.590Z,55.05
2022-09-24T17:02:59.780Z,101.65
2022-09-24T17:05:05.216Z,116.80
2022-09-24T17:07:10.512Z,135.15
2022-09-24T17:09:31.968Z,103.53
2022-09-24T17:11:37.612Z,64.78
2022-09-24T17:13:43.674Z,82.47
2022-09-24T17:15:47.881Z,71.20
2022-09-24T17:17:52.214Z,62.65
2022-09-24T17:19:56.371Z,50.47
2022-09-24T17:22:00.644Z,59.80
2022-09-24T17:24:05.167Z,52.85
2022-09-24T17:26:12.897Z,39.35
2022-09-24T17:28:17.471Z,45.03
2022-09-24T17:30:23.507Z,45.65
2022-09-24T17:32:27.725Z,37.30
2022-09-24T17:34:33.343Z,38.58
2022-09-24T17:36:38.482Z,35.00
2022-09-24T17:38:43.445Z,36.80
2022-09-24T17:40:55.244Z,38.38
2022-09-24T17:42:59.854Z,37.88
2022-09-24T17:45:05.003Z,36.05
2022-09-24T17:47:10.876Z,45.33
2022-09-24T17:49:15.682Z,42.95
2022-09-24T17:51:22.870Z,55.83
2022-09-24T17:53:30.905Z,60.63
2022-09-24T17:55:35.620Z,62.55
2022-09-24T17:57:39.957Z,61.03
2022-09-24T17:59:44.885Z,54.40
2022-09-24T18:01:49.353Z,45.15
2022-09-24T18:03:56.916Z,40.28
2022-09-24T18:06:02.438Z,37.13
2022-09-24T18:08:09.510Z,36.58
2022-09-24T18:10:13.670Z,32.72
2022-09-24T18:12:17.989Z,31.70
2022-09-24T18:14:23.838Z,28.92
2022-09-24T18:16:30.815Z,29.10
2022-09-24T18:18:35.851Z,26.00
2022-09-24T18:20:42.181Z,23.48
2022-09-24T18:22:47.166Z,21.25
2022-09-24T18:24:52.553Z,18.25
2022-09-24T18:26:56.780Z,21.45
2022-09-24T18:29:04.175Z,21.70
2022-09-24T18:31:10.483Z,22.83
2022-09-24T18:33:14.915Z,24.13
2022-09-24T18:35:19.562Z,29.38
2022-09-24T18:37:26.007Z,31.52
2022-09-24T18:39:30.782Z,29.92
2022-09-24T18:41:36.935Z,25.15
2022-09-24T18:43:41.589Z,26.40
2022-09-24T18:45:47.018Z,23.90
2022-09-24T18:47:51.504Z,23.25
2022-09-24T18:49:55.751Z,21.88
2022-09-24T18:52:00.199Z,22.25
2022-09-24T18:54:07.581Z,23.40
2022-09-24T18:56:12.144Z,24.63
2022-09-24T18:58:16.518Z,23.35
2022-09-24T19:00:40.402Z,21.83
2022-09-24T19:02:47.619Z,23.00
2022-09-24T19:04:52.419Z,21.38
2022-09-24T19:06:57.205Z,21.20
2022-09-24T19:09:02.251Z,20.63
2022-09-24T19:11:10.270Z,19.27
2022-09-24T19:13:14.962Z,19.85
2022-09-24T19:15:19.410Z,18.80
2022-09-24T19:17:24.032Z,17.95
2022-09-24T19:19:29.330Z,15.52
2022-09-24T19:21:34.075Z,15.95
2022-09-24T19:23:40.327Z,15.38
2022-09-24T19:25:45.183Z,15.40
2022-09-24T19:27:50.926Z,15.38
2022-09-24T19:29:55.357Z,14.60
2022-09-24T19:31:59.842Z,15.13
2022-09-24T19:34:05.543Z,14.40
2022-09-24T19:36:13.760Z,12.57
2022-09-24T19:38:18.212Z,12.00
2022-09-24T19:40:23.525Z,12.82
2022-09-24T19:42:27.919Z,12.88
2022-09-24T19:44:34.969Z,14.27
2022-09-24T19:46:40.070Z,19.73
2022-09-24T19:48:46.086Z,17.65
2022-09-24T19:50:50.587Z,18.25
2022-09-24T19:52:56.070Z,16.48
2022-09-24T19:55:00.822Z,17.70
2022-09-24T19:57:05.280Z,16.17
2022-09-24T19:59:10.097Z,17.27
2022-09-24T20:01:17.642Z,15.75
2022-09-24T20:03:22.390Z,16.83
2022-09-24T20:05:26.612Z,15.88
2022-09-24T20:07:30.924Z,15.68
2022-09-24T20:09:35.534Z,16.23
2022-09-24T20:11:39.865Z,15.73
2022-09-24T20:13:46.397Z,13.40
2022-09-24T20:15:59.906Z,14.20
2022-09-24T20:18:09.738Z,14.25
2022-09-24T20:20:14.127Z,14.25
2022-09-24T20:22:18.469Z,14.13
2022-09-24T20:24:22.898Z,13.75
2022-09-24T20:26:44.719Z,14.25
2022-09-24T20:28:49.029Z,15.82
2022-09-24T20:30:54.176Z,14.90
2022-09-24T20:32:58.838Z,14.38
2022-09-24T20:35:04.954Z,15.25
2022-09-24T20:37:10.351Z,15.25
2022-09-24T20:39:15.116Z,14.77
2022-09-24T20:41:21.997Z,14.27
2022-09-24T20:43:30.687Z,15.10
2022-09-24T20:45:37.531Z,13.50
2022-09-24T20:47:42.284Z,13.80
2022-09-24T20:49:49.851Z,15.45
2022-09-24T20:51:57.860Z,13.95
2022-09-24T20:54:05.217Z,12.90
2022-09-24T20:56:12.470Z,13.65
2022-09-24T20:58:18.019Z,13.57
2022-09-24T21:00:26.126Z,13.32
2022-09-24T21:02:30.657Z,14.93
2022-09-24T21:04:36.146Z,13.65
2022-09-24T21:06:40.497Z,13.75
2022-09-24T21:08:47.670Z,12.95
2022-09-24T21:11:02.944Z,13.80
2022-09-24T21:13:09.933Z,14.30
2022-09-24T21:15:15.790Z,15.55
2022-09-24T21:17:21.052Z,14.35
2022-09-24T21:19:26.036Z,14.10
2022-09-24T21:21:32.591Z,13.50
2022-09-24T21:23:38.194Z,12.95
2022-09-24T21:25:57.917Z,14.05
2022-09-24T21:28:07.572Z,14.30
2022-09-24T21:30:12.781Z,14.35
2022-09-24T21:32:18.197Z,13.80
2022-09-24T21:34:26.576Z,14.25
2022-09-24T21:36:32.271Z,15.70
2022-09-24T21:38:37.328Z,16.50
2022-09-24T21:40:55.082Z,15.27
2022-09-24T21:43:00.498Z,14.82
2022-09-24T21:45:05.435Z,15.27
2022-09-24T21:47:11.906Z,15.50
2022-09-24T21:49:17.641Z,16.17
2022-09-24T21:51:23.887Z,15.55
2022-09-24T21:53:30.561Z,29.17
2022-09-24T21:55:38.176Z,29.10
2022-09-24T21:57:44.212Z,20.42
2022-09-24T22:00:10.222Z,23.25
2022-09-24T22:02:16.852Z,31.05
2022-09-24T22:04:23.897Z,34.05
2022-09-24T22:06:32.058Z,37.35
2022-09-24T22:08:36.624Z,32.63
2022-09-24T22:10:41.667Z,30.77
2022-09-24T22:12:47.748Z,32.33
2022-09-24T22:14:57.508Z,35.03
2022-09-24T22:17:05.246Z,33.30
2022-09-24T22:19:10.615Z,32.47
2022-09-24T22:21:16.435Z,31.08
2022-09-24T22:23:22.899Z,31.05
2022-09-24T22:25:27.423Z,29.25
2022-09-24T22:27:31.755Z,27.95
2022-09-24T22:29:37.409Z,28.65
2022-09-24T22:31:41.695Z,22.60
2022-09-24T22:34:03.734Z,25.48
2022-09-24T22:36:08.779Z,21.15
2022-09-24T22:38:13.167Z,19.70
2022-09-24T22:40:17.752Z,17.45
2022-09-24T22:42:22.222Z,18.73
2022-09-24T22:44:26.788Z,19.70
2022-09-24T22:46:34.237Z,19.75
2022-09-24T22:48:39.675Z,18.40
2022-09-24T22:50:44.816Z,18.95
2022-09-24T22:52:49.614Z,19.33
2022-09-24T22:54:54.028Z,18.65
2022-09-24T22:56:58.272Z,19.38
2022-09-24T22:59:02.936Z,19.48
2022-09-24T23:01:08.876Z,19.67
2022-09-24T23:03:14.731Z,20.13
2022-09-24T23:05:19.271Z,17.95
2022-09-24T23:07:24.271Z,18.38
2022-09-24T23:09:28.981Z,18.80
2022-09-24T23:11:35.282Z,18.08
2022-09-24T23:13:40.919Z,18.35
2022-09-24T23:15:45.353Z,18.05
2022-09-24T23:17:49.592Z,17.35
2022-09-24T23:19:55.993Z,15.55
2022-09-24T23:22:00.339Z,16.50
2022-09-24T23:24:07.331Z,15.80
2022-09-24T23:26:16.712Z,18.50
2022-09-24T23:28:21.037Z,16.38
2022-09-24T23:30:26.382Z,18.55
2022-09-24T23:32:32.205Z,18.60
2022-09-24T23:34:36.718Z,17.60
2022-09-24T23:36:43.062Z,17.23
2022-09-24T23:38:47.385Z,17.83
2022-09-24T23:40:51.834Z,17.50
2022-09-24T23:42:57.397Z,18.00
2022-09-24T23:45:02.271Z,16.40
2022-09-24T23:47:07.141Z,16.35
2022-09-24T23:49:11.739Z,15.63
2022-09-24T23:51:16.186Z,15.68
2022-09-24T23:53:23.515Z,15.15
2022-09-24T23:55:28.439Z,15.65
2022-09-24T23:57:32.858Z,18.02
2022-09-24T23:59:37.212Z,18.85
